ADDS METAR Data INFO
IDs: Format: Raw Decoded Include TAF

Data at: 0513 UTC 22 Jul 2017

KCRP 220451Z 17005KT 10SM FEW020 FEW250 26/24 A2997 RMK AO2 SLP146 T02610244
KCRP 220351Z 16006KT 10SM FEW020 FEW250 27/25 A2995 RMK AO2 SLP141 T02720250
KCRP 220251Z 15009KT 10SM FEW020 SCT250 28/24 A2994 RMK AO2 SLP136 T02780244 51006
KCRP 220151Z 14013KT 10SM FEW021 SCT250 28/25 A2993 RMK AO2 SLP135 T02830250
KCRP 220051Z 14014KT 10SM FEW028 SCT250 30/24 A2993 RMK AO2 SLP133 T03000244
KCRP 212351Z 14013KT 10SM FEW033 FEW250 32/23 A2992 RMK AO2 SLP130 T03170233 10350 20317 56013
KCRP 212251Z 14018G22KT 10SM FEW038 FEW120 FEW250 33/23 A2992 RMK AO2 SLP131 CB DSNT N NE T03280228
KCRP 212151Z 14013G19KT 10SM FEW038 FEW120 SCT250 34/24 A2994 RMK AO2 SLP136 TCU DSNT SW T03390239
KCRP 212051Z 13014G20KT 10SM FEW040 FEW120 SCT250 34/23 A2996 RMK AO2 SLP143 TCU DSNT N SW T03390233 58017
KCRP 211951Z COR 15011G20KT 10SM FEW045 BKN250 34/23 A2997 RMK AO2 SLP149 TCU DSNT N S T03440233
KCRP 211851Z 15012G20KT 10SM FEW043 SCT250 34/23 A3000 RMK AO2 SLP157 T03440233
KCRP 211751Z 16014G18KT 10SM FEW036 SCT043 SCT250 34/23 A3001 RMK AO2 SLP160 CB DSNT NE T03390228 10339 20239 58008
KCRP 211651Z 17010KT 10SM FEW035 SCT042 SCT250 33/23 A3002 RMK AO2 SLP164 CB DSNT NE T03280233
KCRP 211551Z 15009KT 10SM FEW030 FEW036 SCT250 32/23 A3003 RMK AO2 SLP167 T03220233
KCRP 211451Z 16009KT 10SM FEW024 FEW250 30/25 A3003 RMK AO2 SLP168 T03000250 51015
KCRP 211351Z 16007KT 10SM FEW015 FEW250 28/26 A3003 RMK AO2 SLP167 T02830256
KCRP 211251Z 12003KT 10SM FEW018 FEW250 26/26 A3001 RMK AO2 SLP159 T02610256
KCRP 211151Z 13003KT 10SM FEW018 FEW250 24/24 A2999 RMK AO2 SLP153 T02390239 10267 20233 53003
KCRP 211051Z 00000KT 10SM FEW020 25/24 A2998 RMK AO2 SLP150 T02500244
KCRP 210951Z 00000KT 10SM FEW020 24/24 A2997 RMK AO2 SLP149 T02440244
KCRP 210851Z 18005KT 10SM FEW020 25/25 A2998 RMK AO2 SLP151 T02500250 58017
KCRP 210751Z 18005KT 10SM FEW020 26/25 A3000 RMK AO2 SLP157 T02560250
KCRP 210651Z 17006KT 10SM FEW020 26/26 A3001 RMK AO2 SLP162 T02610256
KCRP 210551Z 16006KT 10SM FEW020 27/26 A3003 RMK AO2 SLP167 T02670256 10317 20267 403560244 50008
KCRP 210451Z 16006KT 10SM FEW020 27/25 A3003 RMK AO2 SLP169 T02670250
KCRP 210351Z 16009KT 10SM CLR 28/26 A3002 RMK AO2 SLP164 T02780256
KCRP 210251Z 15007KT 10SM FEW023 FEW250 28/26 A3000 RMK AO2 SLP159 T02830256 53008
KCRP 210151Z 14011KT 10SM FEW250 29/25 A2999 RMK AO2 SLP154 T02890250
KCRP 210051Z 15013G19KT 10SM FEW250 30/23 A2998 RMK AO2 SLP152 T03000233
KCRP 202351Z 14015G21KT 10SM FEW055 FEW250 32/24 A2998 RMK AO2 SLP150 T03170239 10356 20317 56015
KCRP 202251Z 13015G20KT 10SM FEW055 FEW180 SCT250 33/22 A2998 RMK AO2 SLP152 CB DSNT NE T03330222
KCRP 202151Z 13013G21KT 10SM FEW045 FEW060 BKN250 33/22 A3000 RMK AO2 SLP159 CB DSNT NE SW MOV NE TCU DSNT W NW T03330222
KCRP 202051Z 13014G18KT 10SM FEW045 FEW060 BKN250 34/22 A3002 RMK AO2 SLP165 CB DSNT N-NE MOV NE TCU DSNT SW T03390222 56019
KCRP 201951Z 14010G19KT 10SM FEW045 FEW055 BKN250 36/23 A3004 RMK AO2 SLP170 TCU DSNT NE SE T03560233
KCRP 201851Z 17010G17KT 10SM FEW043 FEW065 BKN250 34/24 A3006 RMK AO2 SLP176 CB DSNT NE T03440239
KCRP 201751Z 14009G15KT 10SM FEW038 SCT046 SCT055 BKN250 35/23 A3008 RMK AO2 SLP185 T03500233 10350 20244 58011